AFL0506 LTAI-URSS
Flight info
| Callsign | AFL0506 |
|---|---|
| Flight time | 1h 36m |
| Altitude | 37000 |
| Route | EKSEN UA16 KFK UR32 HALIL UW77 BAG UW71 CRM UG901 BALUM G901 KEPOL G487 DIRUN |
| Aircraft | A320/M-SDE3FGHIRWY/LB1 |
Departure
| Time | 2026-05-06 09:31 |
|---|---|
| Airport | Antalya International Airport (LTAI) |
Arrival
| Time | 2026-05-06 11:07 |
|---|---|
| Airport | Sochi International Airport (URSS) |
| Time | Latitude | Longitude | Altitude | Speed | Heading |
|---|---|---|---|---|---|
| 2026-05-06 09:07 | 36.89507 | 30.80445 | 203 ft | 0 kts | 186° |
| 2026-05-06 09:13 | 36.89508 | 30.80445 | 189 ft | 0 kts | 186° |
| 2026-05-06 09:21 | 36.89510 | 30.80445 | 189 ft | 1 kts | 186° |
| 2026-05-06 09:22 | 36.89527 | 30.80446 | 198 ft | 3 kts | 175° |
| 2026-05-06 09:22 | 36.89547 | 30.80443 | 201 ft | 3 kts | 160° |
| 2026-05-06 09:22 | 36.89565 | 30.80432 | 189 ft | 3 kts | 141° |
| 2026-05-06 09:22 | 36.89578 | 30.80415 | 205 ft | 3 kts | 113° |
| 2026-05-06 09:23 | 36.89582 | 30.80402 | 205 ft | 0 kts | 96° |
| 2026-05-06 09:25 | 36.89582 | 30.80403 | 205 ft | 1 kts | 96° |
| 2026-05-06 09:25 | 36.89579 | 30.80434 | 203 ft | 7 kts | 97° |
| 2026-05-06 09:25 | 36.89571 | 30.80518 | 189 ft | 13 kts | 96° |
| 2026-05-06 09:25 | 36.89561 | 30.80631 | 195 ft | 13 kts | 97° |
| 2026-05-06 09:26 | 36.89479 | 30.80680 | 200 ft | 13 kts | 186° |
| 2026-05-06 09:26 | 36.89381 | 30.80666 | 192 ft | 14 kts | 186° |
| 2026-05-06 09:26 | 36.89278 | 30.80652 | 195 ft | 17 kts | 186° |
| 2026-05-06 09:26 | 36.89153 | 30.80634 | 197 ft | 16 kts | 186° |
| 2026-05-06 09:27 | 36.89046 | 30.80619 | 190 ft | 16 kts | 186° |
| 2026-05-06 09:27 | 36.88922 | 30.80602 | 193 ft | 19 kts | 186° |
| 2026-05-06 09:27 | 36.88785 | 30.80583 | 195 ft | 22 kts | 186° |
| 2026-05-06 09:27 | 36.88639 | 30.80563 | 190 ft | 20 kts | 186° |
| 2026-05-06 09:28 | 36.88498 | 30.80544 | 190 ft | 22 kts | 186° |
| 2026-05-06 09:28 | 36.88351 | 30.80524 | 200 ft | 21 kts | 186° |
| 2026-05-06 09:28 | 36.88218 | 30.80506 | 205 ft | 16 kts | 186° |
| 2026-05-06 09:28 | 36.88123 | 30.80528 | 194 ft | 15 kts | 132° |
| 2026-05-06 09:29 | 36.88105 | 30.80607 | 198 ft | 0 kts | 95° |
| 2026-05-06 09:29 | 36.88104 | 30.80619 | 198 ft | 5 kts | 95° |
| 2026-05-06 09:29 | 36.88109 | 30.80691 | 192 ft | 12 kts | 66° |
| 2026-05-06 09:30 | 36.88186 | 30.80738 | 198 ft | 2 kts | 5° |
| 2026-05-06 09:30 | 36.88196 | 30.80739 | 195 ft | 14 kts | 6° |
| 2026-05-06 09:30 | 36.88590 | 30.80794 | 200 ft | 94 kts | 6° |
| 2026-05-06 09:30 | 36.89455 | 30.80913 | 196 ft | 153 kts | 6° |
| 2026-05-06 09:31 | 36.90657 | 30.81079 | 317 ft | 187 kts | 7° |
| 2026-05-06 09:31 | 36.91950 | 30.81239 | 1020 ft | 188 kts | 5° |
| 2026-05-06 09:31 | 36.93218 | 30.81607 | 1733 ft | 192 kts | 20° |
| 2026-05-06 09:31 | 36.94513 | 30.82297 | 2136 ft | 212 kts | 24° |
| 2026-05-06 09:32 | 36.95876 | 30.83092 | 2832 ft | 218 kts | 24° |
| 2026-05-06 09:32 | 36.97262 | 30.83886 | 3751 ft | 220 kts | 24° |
| 2026-05-06 09:32 | 36.98670 | 30.84667 | 4646 ft | 222 kts | 23° |
| 2026-05-06 09:32 | 37.00134 | 30.85448 | 5251 ft | 240 kts | 22° |
| 2026-05-06 09:33 | 37.01752 | 30.86273 | 5694 ft | 262 kts | 21° |
| 2026-05-06 09:33 | 37.03473 | 30.87130 | 6468 ft | 270 kts | 21° |
| 2026-05-06 09:33 | 37.05215 | 30.87986 | 7296 ft | 275 kts | 20° |
| 2026-05-06 09:33 | 37.07055 | 30.88665 | 8200 ft | 278 kts | 7° |
| 2026-05-06 09:34 | 37.08990 | 30.88626 | 9118 ft | 280 kts | 349° |
| 2026-05-06 09:34 | 37.10906 | 30.88148 | 10044 ft | 282 kts | 348° |
| 2026-05-06 09:34 | 37.12897 | 30.87643 | 10471 ft | 304 kts | 348° |
| 2026-05-06 09:34 | 37.15049 | 30.87098 | 10739 ft | 327 kts | 348° |
| 2026-05-06 09:35 | 37.17332 | 30.86522 | 11252 ft | 340 kts | 348° |
| 2026-05-06 09:35 | 37.19671 | 30.85933 | 12002 ft | 344 kts | 348° |
| 2026-05-06 09:35 | 37.22032 | 30.85340 | 12789 ft | 348 kts | 348° |
| 2026-05-06 09:35 | 37.24416 | 30.84743 | 13565 ft | 351 kts | 348° |
| 2026-05-06 09:36 | 37.26821 | 30.84141 | 14327 ft | 354 kts | 348° |
| 2026-05-06 09:36 | 37.29243 | 30.83534 | 15013 ft | 357 kts | 347° |
| 2026-05-06 09:36 | 37.31688 | 30.82919 | 15664 ft | 360 kts | 347° |
| 2026-05-06 09:36 | 37.34163 | 30.82295 | 16329 ft | 364 kts | 347° |
| 2026-05-06 09:37 | 37.36666 | 30.81661 | 16958 ft | 368 kts | 347° |
| 2026-05-06 09:37 | 37.39184 | 30.81021 | 17594 ft | 371 kts | 347° |
| 2026-05-06 09:37 | 37.41702 | 30.80414 | 18185 ft | 376 kts | 351° |
| 2026-05-06 09:37 | 37.44330 | 30.80252 | 18754 ft | 381 kts | 360° |
| 2026-05-06 09:38 | 37.47027 | 30.80349 | 19304 ft | 384 kts | 360° |
| 2026-05-06 09:38 | 37.49673 | 30.80440 | 19829 ft | 386 kts | 360° |
| 2026-05-06 09:38 | 37.52369 | 30.80540 | 20369 ft | 389 kts | 360° |
| 2026-05-06 09:38 | 37.55087 | 30.80654 | 20903 ft | 392 kts | 0° |
| 2026-05-06 09:39 | 37.57823 | 30.80780 | 21430 ft | 395 kts | 0° |
| 2026-05-06 09:39 | 37.60576 | 30.80912 | 21930 ft | 397 kts | 0° |
| 2026-05-06 09:39 | 37.63357 | 30.81045 | 22433 ft | 400 kts | 0° |
| 2026-05-06 09:39 | 37.66148 | 30.81179 | 22930 ft | 403 kts | 0° |
| 2026-05-06 09:40 | 37.68956 | 30.81310 | 23437 ft | 405 kts | 360° |
| 2026-05-06 09:40 | 37.71785 | 30.81433 | 23883 ft | 407 kts | 358° |
| 2026-05-06 09:40 | 37.77330 | 30.80175 | 24638 ft | 407 kts | 337° |
| 2026-05-06 09:41 | 37.79856 | 30.78556 | 25017 ft | 408 kts | 326° |
| 2026-05-06 09:41 | 37.82106 | 30.76356 | 25401 ft | 410 kts | 316° |
| 2026-05-06 09:41 | 37.84085 | 30.73746 | 25778 ft | 412 kts | 313° |
| 2026-05-06 09:41 | 37.86094 | 30.71153 | 26146 ft | 415 kts | 318° |
| 2026-05-06 09:42 | 37.88422 | 30.68976 | 26508 ft | 418 kts | 328° |
| 2026-05-06 09:42 | 37.91050 | 30.67358 | 26864 ft | 422 kts | 338° |
| 2026-05-06 09:42 | 37.93897 | 30.66366 | 27221 ft | 427 kts | 348° |
| 2026-05-06 09:42 | 37.96853 | 30.65902 | 27583 ft | 430 kts | 352° |
| 2026-05-06 09:43 | 37.99836 | 30.65477 | 27922 ft | 432 kts | 352° |
| 2026-05-06 09:43 | 38.02840 | 30.65061 | 28270 ft | 435 kts | 352° |
| 2026-05-06 09:43 | 38.05851 | 30.64654 | 28611 ft | 437 kts | 352° |
| 2026-05-06 09:43 | 38.08884 | 30.64256 | 28933 ft | 439 kts | 352° |
| 2026-05-06 09:44 | 38.11930 | 30.63859 | 29251 ft | 441 kts | 352° |
| 2026-05-06 09:44 | 38.14951 | 30.63465 | 29548 ft | 443 kts | 352° |
| 2026-05-06 09:44 | 38.18029 | 30.63059 | 29877 ft | 445 kts | 352° |
| 2026-05-06 09:44 | 38.21118 | 30.62650 | 30176 ft | 447 kts | 352° |
| 2026-05-06 09:45 | 38.24210 | 30.62241 | 30536 ft | 446 kts | 352° |
| 2026-05-06 09:45 | 38.27289 | 30.61833 | 30933 ft | 444 kts | 352° |
| 2026-05-06 09:45 | 38.30359 | 30.61423 | 31323 ft | 442 kts | 352° |
| 2026-05-06 09:45 | 38.33413 | 30.61009 | 31706 ft | 441 kts | 352° |
| 2026-05-06 09:46 | 38.36461 | 30.60593 | 32110 ft | 439 kts | 352° |
| 2026-05-06 09:46 | 38.39500 | 30.60184 | 32498 ft | 438 kts | 352° |
| 2026-05-06 09:46 | 38.42521 | 30.59781 | 32891 ft | 437 kts | 352° |
| 2026-05-06 09:46 | 38.45542 | 30.59381 | 33275 ft | 435 kts | 352° |
| 2026-05-06 09:47 | 38.48549 | 30.58981 | 33652 ft | 434 kts | 352° |
| 2026-05-06 09:47 | 38.51553 | 30.58579 | 34030 ft | 433 kts | 352° |
| 2026-05-06 09:47 | 38.54542 | 30.58180 | 34356 ft | 432 kts | 352° |
| 2026-05-06 09:47 | 38.57531 | 30.57780 | 34654 ft | 431 kts | 351° |
| 2026-05-06 09:48 | 38.60516 | 30.57375 | 34936 ft | 431 kts | 351° |
| 2026-05-06 09:48 | 38.63501 | 30.56971 | 35195 ft | 431 kts | 351° |
| 2026-05-06 09:48 | 38.66487 | 30.56570 | 35459 ft | 431 kts | 351° |
| 2026-05-06 09:48 | 38.69474 | 30.56169 | 35717 ft | 431 kts | 351° |
| 2026-05-06 09:49 | 38.72467 | 30.55845 | 35960 ft | 433 kts | 358° |
| 2026-05-06 09:49 | 38.75465 | 30.56281 | 36191 ft | 438 kts | 11° |
| 2026-05-06 09:49 | 38.77393 | 30.57094 | 36342 ft | 442 kts | 21° |
| 2026-05-06 09:49 | 38.80065 | 30.59071 | 36560 ft | 448 kts | 35° |
| 2026-05-06 09:50 | 38.82314 | 30.61867 | 36763 ft | 455 kts | 49° |
| 2026-05-06 09:50 | 38.83982 | 30.65340 | 36972 ft | 461 kts | 63° |
| 2026-05-06 09:50 | 38.85256 | 30.69125 | 37099 ft | 463 kts | 64° |
| 2026-05-06 09:50 | 38.86517 | 30.72928 | 37115 ft | 464 kts | 64° |
| 2026-05-06 09:51 | 38.89440 | 30.81798 | 37112 ft | 464 kts | 64° |
| 2026-05-06 09:51 | 38.91553 | 30.88198 | 37112 ft | 464 kts | 64° |
| 2026-05-06 09:52 | 38.94076 | 30.95833 | 37110 ft | 465 kts | 64° |
| 2026-05-06 09:52 | 38.96602 | 31.03486 | 37111 ft | 465 kts | 64° |
| 2026-05-06 09:53 | 38.99112 | 31.11139 | 37117 ft | 465 kts | 64° |
| 2026-05-06 09:53 | 39.01601 | 31.18751 | 37119 ft | 465 kts | 64° |
| 2026-05-06 09:54 | 39.04105 | 31.26423 | 37124 ft | 465 kts | 64° |
| 2026-05-06 09:54 | 39.06602 | 31.34094 | 37127 ft | 464 kts | 64° |
| 2026-05-06 09:55 | 39.09097 | 31.41764 | 37129 ft | 464 kts | 64° |
| 2026-05-06 09:55 | 39.11578 | 31.49431 | 37127 ft | 464 kts | 64° |
| 2026-05-06 09:56 | 39.14055 | 31.57119 | 37115 ft | 464 kts | 64° |
| 2026-05-06 09:56 | 39.16531 | 31.64808 | 37119 ft | 464 kts | 64° |
| 2026-05-06 09:57 | 39.18999 | 31.72490 | 37127 ft | 464 kts | 64° |
| 2026-05-06 09:57 | 39.21444 | 31.80134 | 37123 ft | 464 kts | 64° |
| 2026-05-06 09:58 | 39.23907 | 31.87832 | 37122 ft | 464 kts | 64° |
| 2026-05-06 09:58 | 39.26363 | 31.95533 | 37118 ft | 464 kts | 64° |
| 2026-05-06 09:59 | 39.28805 | 32.03237 | 37122 ft | 464 kts | 64° |
| 2026-05-06 09:59 | 39.31245 | 32.10953 | 37116 ft | 464 kts | 64° |
| 2026-05-06 10:00 | 39.33681 | 32.18671 | 37112 ft | 464 kts | 64° |
| 2026-05-06 10:00 | 39.36118 | 32.26409 | 37111 ft | 465 kts | 64° |
| 2026-05-06 10:01 | 39.39313 | 32.33539 | 37113 ft | 455 kts | 46° |
| 2026-05-06 10:01 | 39.43979 | 32.38879 | 37106 ft | 445 kts | 27° |
| 2026-05-06 10:02 | 39.49422 | 32.42588 | 37103 ft | 442 kts | 23° |
| 2026-05-06 10:02 | 39.54868 | 32.46188 | 37102 ft | 442 kts | 23° |
| 2026-05-06 10:03 | 39.60347 | 32.49824 | 37101 ft | 442 kts | 23° |
| 2026-05-06 10:03 | 39.65830 | 32.53468 | 37108 ft | 442 kts | 23° |
| 2026-05-06 10:04 | 39.71311 | 32.57106 | 37107 ft | 442 kts | 23° |
| 2026-05-06 10:04 | 39.76784 | 32.60745 | 37100 ft | 442 kts | 23° |
| 2026-05-06 10:05 | 39.82256 | 32.64397 | 37104 ft | 442 kts | 23° |
| 2026-05-06 10:05 | 39.87730 | 32.68048 | 37106 ft | 442 kts | 23° |
| 2026-05-06 10:06 | 39.93169 | 32.71689 | 37109 ft | 442 kts | 23° |
| 2026-05-06 10:06 | 39.98645 | 32.75361 | 37110 ft | 442 kts | 23° |
| 2026-05-06 10:07 | 40.04099 | 32.79066 | 37109 ft | 443 kts | 27° |
| 2026-05-06 10:07 | 40.08869 | 32.84249 | 37112 ft | 453 kts | 46° |
| 2026-05-06 10:08 | 40.12715 | 32.90796 | 37110 ft | 455 kts | 49° |
| 2026-05-06 10:08 | 40.16559 | 32.97367 | 37109 ft | 455 kts | 49° |
| 2026-05-06 10:09 | 40.20373 | 33.03908 | 37117 ft | 455 kts | 49° |
| 2026-05-06 10:09 | 40.24099 | 33.10626 | 37110 ft | 459 kts | 57° |
| 2026-05-06 10:10 | 40.26824 | 33.18232 | 37107 ft | 462 kts | 63° |
| 2026-05-06 10:10 | 40.29424 | 33.25925 | 37113 ft | 462 kts | 63° |
| 2026-05-06 10:11 | 40.32041 | 33.33624 | 37103 ft | 462 kts | 63° |
| 2026-05-06 10:11 | 40.34660 | 33.41342 | 37115 ft | 462 kts | 63° |
| 2026-05-06 10:12 | 40.37256 | 33.49048 | 37117 ft | 462 kts | 63° |
| 2026-05-06 10:12 | 40.39847 | 33.56761 | 37116 ft | 462 kts | 64° |
| 2026-05-06 10:13 | 40.42435 | 33.64493 | 37116 ft | 462 kts | 64° |
| 2026-05-06 10:13 | 40.44883 | 33.72303 | 37116 ft | 464 kts | 70° |
| 2026-05-06 10:14 | 40.46869 | 33.80296 | 37117 ft | 464 kts | 70° |
| 2026-05-06 10:14 | 40.48873 | 33.88357 | 37123 ft | 464 kts | 70° |
| 2026-05-06 10:15 | 40.50906 | 33.96404 | 37121 ft | 463 kts | 68° |
| 2026-05-06 10:15 | 40.53265 | 34.04277 | 37121 ft | 462 kts | 65° |
| 2026-05-06 10:16 | 40.55789 | 34.12046 | 37114 ft | 462 kts | 65° |
| 2026-05-06 10:16 | 40.58265 | 34.19856 | 37111 ft | 463 kts | 66° |
| 2026-05-06 10:17 | 40.60672 | 34.27719 | 37111 ft | 463 kts | 66° |
| 2026-05-06 10:17 | 40.63053 | 34.35596 | 37112 ft | 464 kts | 66° |
| 2026-05-06 10:18 | 40.65437 | 34.43439 | 37110 ft | 464 kts | 66° |
| 2026-05-06 10:18 | 40.67838 | 34.51332 | 37110 ft | 464 kts | 66° |
| 2026-05-06 10:19 | 40.70234 | 34.59235 | 37110 ft | 464 kts | 67° |
| 2026-05-06 10:19 | 40.72617 | 34.67142 | 37104 ft | 464 kts | 67° |
| 2026-05-06 10:20 | 40.74995 | 34.75050 | 37107 ft | 464 kts | 67° |
| 2026-05-06 10:20 | 40.77348 | 34.82973 | 37106 ft | 464 kts | 68° |
| 2026-05-06 10:21 | 40.79670 | 34.90913 | 37097 ft | 464 kts | 68° |
| 2026-05-06 10:21 | 40.81987 | 34.98864 | 37101 ft | 464 kts | 68° |
| 2026-05-06 10:22 | 40.84311 | 35.06822 | 37092 ft | 464 kts | 68° |
| 2026-05-06 10:22 | 40.86633 | 35.14774 | 37092 ft | 464 kts | 68° |
| 2026-05-06 10:23 | 40.88931 | 35.22682 | 37091 ft | 464 kts | 68° |
| 2026-05-06 10:23 | 40.91235 | 35.30650 | 37096 ft | 464 kts | 68° |
| 2026-05-06 10:24 | 40.93538 | 35.38621 | 37095 ft | 464 kts | 68° |
| 2026-05-06 10:24 | 40.95831 | 35.46598 | 37095 ft | 464 kts | 69° |
| 2026-05-06 10:25 | 40.98117 | 35.54577 | 37094 ft | 464 kts | 69° |
| 2026-05-06 10:25 | 41.00405 | 35.62560 | 37101 ft | 464 kts | 69° |
| 2026-05-06 10:26 | 41.02697 | 35.70553 | 37108 ft | 464 kts | 69° |
| 2026-05-06 10:26 | 41.05033 | 35.78546 | 37107 ft | 465 kts | 68° |
| 2026-05-06 10:27 | 41.07384 | 35.86469 | 37116 ft | 465 kts | 68° |
| 2026-05-06 10:27 | 41.09736 | 35.94466 | 37117 ft | 465 kts | 68° |
| 2026-05-06 10:28 | 41.12003 | 36.02492 | 37123 ft | 465 kts | 69° |
| 2026-05-06 10:28 | 41.14238 | 36.10567 | 37126 ft | 466 kts | 69° |
| 2026-05-06 10:29 | 41.16484 | 36.18631 | 37139 ft | 466 kts | 69° |
| 2026-05-06 10:29 | 41.18740 | 36.26701 | 37145 ft | 466 kts | 69° |
| 2026-05-06 10:30 | 41.20988 | 36.34772 | 37149 ft | 466 kts | 69° |
| 2026-05-06 10:30 | 41.23218 | 36.42798 | 37156 ft | 466 kts | 70° |
| 2026-05-06 10:31 | 41.25778 | 36.50685 | 37152 ft | 465 kts | 58° |
| 2026-05-06 10:31 | 41.29995 | 36.57149 | 37151 ft | 464 kts | 38° |
| 2026-05-06 10:32 | 41.35439 | 36.61718 | 37147 ft | 463 kts | 29° |
| 2026-05-06 10:32 | 41.41018 | 36.66014 | 37144 ft | 463 kts | 30° |
| 2026-05-06 10:33 | 41.46582 | 36.70333 | 37143 ft | 463 kts | 30° |
| 2026-05-06 10:33 | 41.52155 | 36.74653 | 37144 ft | 463 kts | 30° |
| 2026-05-06 10:34 | 41.57725 | 36.78968 | 37147 ft | 463 kts | 30° |
| 2026-05-06 10:34 | 41.63285 | 36.83293 | 37146 ft | 462 kts | 30° |
| 2026-05-06 10:35 | 41.68842 | 36.87635 | 37146 ft | 462 kts | 30° |
| 2026-05-06 10:35 | 41.74400 | 36.91979 | 37148 ft | 463 kts | 30° |
| 2026-05-06 10:36 | 41.79024 | 36.95594 | 37141 ft | 463 kts | 30° |
| 2026-05-06 10:36 | 41.85485 | 37.00667 | 37148 ft | 463 kts | 30° |
| 2026-05-06 10:37 | 41.91042 | 37.05032 | 37145 ft | 463 kts | 30° |
| 2026-05-06 10:37 | 41.95707 | 37.08689 | 37151 ft | 463 kts | 30° |
| 2026-05-06 10:38 | 42.01277 | 37.13066 | 37155 ft | 464 kts | 30° |
| 2026-05-06 10:38 | 42.06808 | 37.17425 | 37156 ft | 464 kts | 31° |
| 2026-05-06 10:39 | 42.12375 | 37.21818 | 37154 ft | 464 kts | 31° |
| 2026-05-06 10:39 | 42.17946 | 37.26226 | 37158 ft | 463 kts | 31° |
| 2026-05-06 10:40 | 42.23507 | 37.30643 | 37158 ft | 463 kts | 31° |
| 2026-05-06 10:40 | 42.29062 | 37.35056 | 37162 ft | 463 kts | 31° |
| 2026-05-06 10:41 | 42.34582 | 37.39441 | 37155 ft | 463 kts | 31° |
| 2026-05-06 10:41 | 42.40131 | 37.43871 | 37154 ft | 463 kts | 31° |
| 2026-05-06 10:42 | 42.45668 | 37.48309 | 37153 ft | 462 kts | 31° |
| 2026-05-06 10:42 | 42.51204 | 37.52746 | 37156 ft | 462 kts | 31° |
| 2026-05-06 10:43 | 42.56736 | 37.57187 | 37143 ft | 462 kts | 31° |
| 2026-05-06 10:43 | 42.59513 | 37.59422 | 36387 ft | 468 kts | 31° |
| 2026-05-06 10:44 | 42.65157 | 37.63964 | 34906 ft | 469 kts | 32° |
| 2026-05-06 10:44 | 42.67967 | 37.66229 | 34176 ft | 469 kts | 32° |
| 2026-05-06 10:44 | 42.70746 | 37.68552 | 33339 ft | 467 kts | 34° |
| 2026-05-06 10:44 | 42.73446 | 37.70953 | 31965 ft | 463 kts | 36° |
| 2026-05-06 10:45 | 42.76078 | 37.73406 | 30418 ft | 465 kts | 37° |
| 2026-05-06 10:45 | 42.78737 | 37.75941 | 29153 ft | 467 kts | 37° |
| 2026-05-06 10:45 | 42.81361 | 37.78443 | 28745 ft | 454 kts | 37° |
| 2026-05-06 10:45 | 42.83944 | 37.80879 | 28006 ft | 449 kts | 37° |
| 2026-05-06 10:46 | 42.86506 | 37.83267 | 27308 ft | 443 kts | 36° |
| 2026-05-06 10:46 | 42.89045 | 37.85617 | 26635 ft | 439 kts | 36° |
| 2026-05-06 10:46 | 42.91570 | 37.87948 | 25968 ft | 434 kts | 36° |
| 2026-05-06 10:46 | 42.94068 | 37.90250 | 25296 ft | 431 kts | 36° |
| 2026-05-06 10:47 | 42.96537 | 37.92530 | 24642 ft | 427 kts | 36° |
| 2026-05-06 10:47 | 42.98985 | 37.94797 | 23995 ft | 423 kts | 36° |
| 2026-05-06 10:47 | 43.01281 | 37.97266 | 23311 ft | 418 kts | 45° |
| 2026-05-06 10:47 | 43.03170 | 38.00225 | 22701 ft | 410 kts | 56° |
| 2026-05-06 10:48 | 43.04621 | 38.03529 | 22145 ft | 402 kts | 65° |
| 2026-05-06 10:48 | 43.05692 | 38.07023 | 21600 ft | 395 kts | 70° |
| 2026-05-06 10:48 | 43.06702 | 38.10491 | 21089 ft | 390 kts | 70° |
| 2026-05-06 10:48 | 43.07697 | 38.13913 | 20599 ft | 385 kts | 70° |
| 2026-05-06 10:49 | 43.08506 | 38.17360 | 20109 ft | 378 kts | 78° |
| 2026-05-06 10:49 | 43.08870 | 38.20922 | 19769 ft | 380 kts | 86° |
| 2026-05-06 10:49 | 43.09068 | 38.24536 | 19423 ft | 381 kts | 86° |
| 2026-05-06 10:49 | 43.09274 | 38.28148 | 19074 ft | 380 kts | 86° |
| 2026-05-06 10:50 | 43.09485 | 38.31692 | 18731 ft | 378 kts | 86° |
| 2026-05-06 10:50 | 43.09702 | 38.35273 | 18384 ft | 377 kts | 86° |
| 2026-05-06 10:50 | 43.09917 | 38.38843 | 18015 ft | 375 kts | 86° |
| 2026-05-06 10:50 | 43.10129 | 38.42388 | 17667 ft | 373 kts | 86° |
| 2026-05-06 10:51 | 43.10337 | 38.45928 | 17323 ft | 372 kts | 86° |
| 2026-05-06 10:51 | 43.10539 | 38.49448 | 16990 ft | 371 kts | 86° |
| 2026-05-06 10:51 | 43.10733 | 38.52962 | 16655 ft | 369 kts | 86° |
| 2026-05-06 10:51 | 43.10923 | 38.56458 | 16316 ft | 367 kts | 86° |
| 2026-05-06 10:52 | 43.11114 | 38.59937 | 15980 ft | 366 kts | 86° |
| 2026-05-06 10:52 | 43.11308 | 38.63399 | 15649 ft | 364 kts | 86° |
| 2026-05-06 10:52 | 43.11502 | 38.66845 | 15321 ft | 362 kts | 86° |
| 2026-05-06 10:52 | 43.11696 | 38.70284 | 14992 ft | 361 kts | 86° |
| 2026-05-06 10:53 | 43.11888 | 38.73704 | 14653 ft | 360 kts | 86° |
| 2026-05-06 10:53 | 43.12077 | 38.77111 | 14327 ft | 358 kts | 87° |
| 2026-05-06 10:53 | 43.12261 | 38.80507 | 14004 ft | 357 kts | 87° |
| 2026-05-06 10:53 | 43.12440 | 38.83887 | 13648 ft | 355 kts | 87° |
| 2026-05-06 10:54 | 43.12617 | 38.87253 | 13289 ft | 354 kts | 87° |
| 2026-05-06 10:54 | 43.12794 | 38.90599 | 12901 ft | 352 kts | 87° |
| 2026-05-06 10:54 | 43.12967 | 38.93937 | 12584 ft | 351 kts | 87° |
| 2026-05-06 10:54 | 43.13138 | 38.97216 | 12261 ft | 349 kts | 87° |
| 2026-05-06 10:55 | 43.13314 | 39.00529 | 11946 ft | 348 kts | 87° |
| 2026-05-06 10:55 | 43.13489 | 39.03826 | 11623 ft | 346 kts | 87° |
| 2026-05-06 10:55 | 43.13659 | 39.07104 | 11315 ft | 345 kts | 87° |
| 2026-05-06 10:55 | 43.13827 | 39.10382 | 11000 ft | 344 kts | 87° |
| 2026-05-06 10:56 | 43.13996 | 39.13636 | 10697 ft | 339 kts | 87° |
| 2026-05-06 10:56 | 43.14161 | 39.16786 | 10566 ft | 325 kts | 87° |
| 2026-05-06 10:56 | 43.14317 | 39.19801 | 10437 ft | 308 kts | 87° |
| 2026-05-06 10:56 | 43.14462 | 39.22640 | 10102 ft | 292 kts | 87° |
| 2026-05-06 10:57 | 43.14599 | 39.25391 | 9796 ft | 287 kts | 87° |
| 2026-05-06 10:57 | 43.14734 | 39.28116 | 9660 ft | 287 kts | 86° |
| 2026-05-06 10:57 | 43.15077 | 39.30802 | 9520 ft | 287 kts | 73° |
| 2026-05-06 10:57 | 43.15702 | 39.33400 | 9371 ft | 287 kts | 72° |
| 2026-05-06 10:58 | 43.16319 | 39.35990 | 9017 ft | 286 kts | 72° |
| 2026-05-06 10:58 | 43.16928 | 39.38580 | 8622 ft | 284 kts | 72° |
| 2026-05-06 10:58 | 43.17527 | 39.41152 | 8224 ft | 283 kts | 72° |
| 2026-05-06 10:58 | 43.18121 | 39.43714 | 7828 ft | 281 kts | 72° |
| 2026-05-06 10:59 | 43.18713 | 39.46261 | 7433 ft | 280 kts | 71° |
| 2026-05-06 10:59 | 43.19304 | 39.48797 | 7043 ft | 279 kts | 71° |
| 2026-05-06 10:59 | 43.19893 | 39.51317 | 6656 ft | 277 kts | 71° |
| 2026-05-06 10:59 | 43.20480 | 39.53829 | 6247 ft | 275 kts | 71° |
| 2026-05-06 11:00 | 43.21060 | 39.56314 | 5861 ft | 273 kts | 71° |
| 2026-05-06 11:00 | 43.21633 | 39.58779 | 5482 ft | 271 kts | 71° |
| 2026-05-06 11:00 | 43.22202 | 39.61226 | 5106 ft | 269 kts | 71° |
| 2026-05-06 11:00 | 43.22767 | 39.63660 | 4727 ft | 267 kts | 71° |
| 2026-05-06 11:01 | 43.23328 | 39.66079 | 4356 ft | 265 kts | 71° |
| 2026-05-06 11:01 | 43.23881 | 39.68466 | 3980 ft | 264 kts | 71° |
| 2026-05-06 11:01 | 43.24435 | 39.70878 | 3609 ft | 263 kts | 71° |
| 2026-05-06 11:01 | 43.24981 | 39.73264 | 3236 ft | 262 kts | 71° |
| 2026-05-06 11:02 | 43.25527 | 39.75639 | 2874 ft | 261 kts | 71° |
| 2026-05-06 11:02 | 43.26066 | 39.77977 | 2696 ft | 251 kts | 71° |
| 2026-05-06 11:02 | 43.26611 | 39.80199 | 2410 ft | 246 kts | 64° |
| 2026-05-06 11:02 | 43.27557 | 39.82132 | 2068 ft | 240 kts | 44° |
| 2026-05-06 11:03 | 43.28824 | 39.83499 | 2024 ft | 224 kts | 30° |
| 2026-05-06 11:03 | 43.30132 | 39.84509 | 2024 ft | 207 kts | 26° |
| 2026-05-06 11:03 | 43.31328 | 39.85394 | 2047 ft | 183 kts | 26° |
| 2026-05-06 11:03 | 43.32366 | 39.86168 | 2066 ft | 157 kts | 26° |
| 2026-05-06 11:04 | 43.33272 | 39.86844 | 2034 ft | 145 kts | 26° |
| 2026-05-06 11:04 | 43.34148 | 39.87497 | 2031 ft | 142 kts | 25° |
| 2026-05-06 11:04 | 43.35017 | 39.88147 | 1957 ft | 142 kts | 26° |
| 2026-05-06 11:04 | 43.35883 | 39.88795 | 1820 ft | 141 kts | 26° |
| 2026-05-06 11:05 | 43.36745 | 39.89440 | 1615 ft | 141 kts | 26° |
| 2026-05-06 11:05 | 43.37601 | 39.90081 | 1399 ft | 140 kts | 25° |
| 2026-05-06 11:05 | 43.38460 | 39.90725 | 1185 ft | 141 kts | 25° |
| 2026-05-06 11:05 | 43.39318 | 39.91368 | 960 ft | 140 kts | 24° |
| 2026-05-06 11:06 | 43.40173 | 39.92010 | 793 ft | 140 kts | 25° |
| 2026-05-06 11:06 | 43.41023 | 39.92648 | 621 ft | 139 kts | 26° |
| 2026-05-06 11:06 | 43.41871 | 39.93294 | 454 ft | 140 kts | 26° |
| 2026-05-06 11:06 | 43.42717 | 39.93948 | 250 ft | 138 kts | 24° |
| 2026-05-06 11:07 | 43.43569 | 39.94557 | 58 ft | 136 kts | 26° |
| 2026-05-06 11:07 | 43.44257 | 39.95081 | 78 ft | 90 kts | 30° |
| 2026-05-06 11:07 | 43.44660 | 39.95384 | 85 ft | 42 kts | 28° |
| 2026-05-06 11:07 | 43.44826 | 39.95508 | 89 ft | 18 kts | 29° |
| 2026-05-06 11:08 | 43.44926 | 39.95579 | 89 ft | 11 kts | 21° |
| 2026-05-06 11:08 | 43.45008 | 39.95544 | 93 ft | 15 kts | 334° |
| 2026-05-06 11:08 | 43.45051 | 39.95517 | 91 ft | 0 kts | 335° |
| 2026-05-06 11:08 | 43.45052 | 39.95515 | 91 ft | 1 kts | 320° |
| 2026-05-06 11:09 | 43.45058 | 39.95480 | 91 ft | 7 kts | 271° |
| 2026-05-06 11:09 | 43.45030 | 39.95383 | 89 ft | 15 kts | 244° |
| 2026-05-06 11:09 | 43.44984 | 39.95246 | 89 ft | 20 kts | 245° |
| 2026-05-06 11:09 | 43.44935 | 39.95110 | 84 ft | 16 kts | 242° |
| 2026-05-06 11:10 | 43.44892 | 39.94989 | 81 ft | 11 kts | 245° |
| 2026-05-06 11:10 | 43.44852 | 39.94870 | 65 ft | 14 kts | 244° |
| 2026-05-06 11:10 | 43.44808 | 39.94742 | 72 ft | 15 kts | 245° |
| 2026-05-06 11:10 | 43.44760 | 39.94599 | 73 ft | 11 kts | 249° |
| 2026-05-06 11:11 | 43.44807 | 39.94526 | 72 ft | 13 kts | 333° |
| 2026-05-06 11:11 | 43.44857 | 39.94494 | 69 ft | 1 kts | 335° |
| 2026-05-06 11:11 | 43.44859 | 39.94493 | 69 ft | 0 kts | 334° |
| 2026-05-06 11:15 | 43.44858 | 39.94493 | 69 ft | 0 kts | 334° |